Terminal Aerodrome Forecast
Issued by NWS Albany, NY

Home | Current Version | Previous Version | Text Only | Print | Product List | Glossary On
Versions: 1 2 3 4 5 6 7 8 9 10 11 12 13 14 15 16 17 18 19 20 21
287
FTUS41 KALY 060532
TAFGFL
TAF
KGFL 060532Z 0606/0706 00000KT 4SM BR BKN035
      TEMPO 0606/0610 1SM BR
     FM061000 00000KT 2SM BR BKN030
     FM061400 07004KT P6SM SCT015 BKN200
     FM062200 08004KT P6SM OVC100
     FM070500 VRB03KT 5SM -SN BKN015 OVC050=

USA.gov is the U.S. government's official web portal to all federal, state and local government web resources and services.